createdAt,value
2018-12-17T00:00:47.170Z,314.09
2018-12-17T00:01:47.144Z,313.95
2018-12-17T00:02:47.116Z,313.48
2018-12-17T00:03:47.132Z,313.51
2018-12-17T00:04:47.111Z,313.93
2018-12-17T00:05:47.116Z,313.77
2018-12-17T00:06:47.086Z,313.35
2018-12-17T00:07:47.070Z,313.78
2018-12-17T00:08:47.062Z,313.79
2018-12-17T00:09:47.066Z,313.79
2018-12-17T00:10:47.049Z,313.22
2018-12-17T00:11:47.073Z,313.57
2018-12-17T00:12:47.039Z,313.55
2018-12-17T00:13:47.000Z,313.22
2018-12-17T00:14:47.016Z,313.18
2018-12-17T00:15:47.011Z,313.73
2018-12-17T00:16:47.000Z,313.37
2018-12-17T00:17:46.989Z,313.38
2018-12-17T00:18:46.977Z,313.64
2018-12-17T00:19:46.929Z,314.14
2018-12-17T00:20:46.961Z,313.83
2018-12-17T00:21:46.942Z,313.75
2018-12-17T00:22:46.960Z,313.68
2018-12-17T00:23:46.899Z,313.47
2018-12-17T00:24:46.916Z,313.72
2018-12-17T00:25:46.906Z,313.70
2018-12-17T00:26:46.853Z,313.30
2018-12-17T00:27:46.868Z,313.52
2018-12-17T00:28:46.874Z,314.07
2018-12-17T00:29:46.836Z,313.39
2018-12-17T00:30:46.847Z,313.74
2018-12-17T00:31:46.819Z,313.30
2018-12-17T00:32:46.853Z,313.90
2018-12-17T00:33:46.831Z,313.50
2018-12-17T00:34:46.785Z,313.95
2018-12-17T00:35:46.835Z,313.47
2018-12-17T00:36:46.799Z,314.13
2018-12-17T00:37:46.749Z,313.78
2018-12-17T00:38:46.745Z,313.62
2018-12-17T00:39:46.783Z,314.03
2018-12-17T00:40:46.715Z,313.60
2018-12-17T00:41:46.722Z,313.33
2018-12-17T00:42:46.696Z,313.68
2018-12-17T00:43:46.686Z,313.14
2018-12-17T00:44:46.672Z,313.50
2018-12-17T00:45:46.695Z,314.08
2018-12-17T00:46:46.653Z,313.45
2018-12-17T00:47:46.632Z,313.21
2018-12-17T00:48:46.623Z,313.69
2018-12-17T00:49:46.623Z,313.53
2018-12-17T00:50:46.642Z,313.70
2018-12-17T00:51:46.591Z,313.50
2018-12-17T00:52:46.590Z,313.32
2018-12-17T00:53:46.607Z,313.10
2018-12-17T00:54:46.565Z,313.48
2018-12-17T00:55:46.554Z,313.91
2018-12-17T00:56:46.558Z,313.02
2018-12-17T00:57:46.530Z,314.06
2018-12-17T00:58:46.527Z,313.83
2018-12-17T00:59:46.555Z,313.84
2018-12-17T01:00:46.499Z,313.66
2018-12-17T01:01:46.495Z,314.22
2018-12-17T01:02:46.497Z,314.22
2018-12-17T01:03:46.477Z,314.00
2018-12-17T01:04:46.470Z,313.39
2018-12-17T01:05:46.474Z,313.72
2018-12-17T01:06:46.430Z,313.41
2018-12-17T01:07:46.445Z,313.71
2018-12-17T01:08:46.437Z,313.44
2018-12-17T01:09:46.394Z,313.48
2018-12-17T01:10:46.387Z,313.95
2018-12-17T01:11:46.414Z,313.16
2018-12-17T01:12:46.370Z,313.64
2018-12-17T01:13:46.368Z,313.53
2018-12-17T01:14:46.372Z,313.64
2018-12-17T01:15:46.357Z,313.69
2018-12-17T01:16:46.343Z,313.83
2018-12-17T01:17:46.348Z,313.25
2018-12-17T01:18:46.305Z,314.04
2018-12-17T01:19:46.302Z,314.08
2018-12-17T01:20:46.299Z,313.57
2018-12-17T01:21:46.296Z,313.33
2018-12-17T01:22:46.324Z,314.38
2018-12-17T01:23:46.258Z,313.35
2018-12-17T01:24:46.246Z,313.94
2018-12-17T01:25:46.241Z,314.04
2018-12-17T01:26:46.249Z,313.63
2018-12-17T01:27:46.220Z,314.04
2018-12-17T01:28:46.240Z,313.81
2018-12-17T01:29:46.187Z,314.16
2018-12-17T01:30:46.181Z,314.04
2018-12-17T01:31:46.172Z,314.60
2018-12-17T01:32:46.170Z,314.00
2018-12-17T01:33:46.156Z,314.55
2018-12-17T01:34:46.180Z,314.13
2018-12-17T01:35:46.137Z,314.28
2018-12-17T01:36:46.115Z,314.02
2018-12-17T01:37:46.111Z,314.61
2018-12-17T01:38:46.087Z,314.28
2018-12-17T01:39:46.088Z,313.82
2018-12-17T01:40:46.110Z,314.25
2018-12-17T01:41:46.054Z,314.24
2018-12-17T01:42:46.052Z,314.45
2018-12-17T01:43:46.052Z,314.36
2018-12-17T01:44:46.035Z,314.66
2018-12-17T01:45:46.036Z,314.82
2018-12-17T01:46:46.032Z,314.48
2018-12-17T01:47:46.001Z,314.60
2018-12-17T01:48:45.994Z,314.50
2018-12-17T01:49:45.990Z,314.17
2018-12-17T01:50:45.955Z,314.48
2018-12-17T01:51:45.968Z,314.25
2018-12-17T01:52:45.969Z,313.98
2018-12-17T01:53:45.929Z,314.15
2018-12-17T01:54:45.928Z,314.20
2018-12-17T01:55:45.912Z,314.36
2018-12-17T01:56:45.893Z,313.82
2018-12-17T01:57:45.899Z,314.43
2018-12-17T01:58:45.918Z,314.39
2018-12-17T01:59:45.880Z,314.24
2018-12-17T02:00:45.931Z,314.15
2018-12-17T02:01:45.868Z,314.42
2018-12-17T02:02:45.846Z,314.12
2018-12-17T02:03:45.831Z,314.36
2018-12-17T02:04:45.821Z,314.38
2018-12-17T02:05:45.813Z,314.63
2018-12-17T02:06:45.802Z,314.09
2018-12-17T02:07:45.808Z,314.05
2018-12-17T02:08:45.779Z,315.12
2018-12-17T02:09:45.759Z,314.28
2018-12-17T02:10:45.757Z,313.81
2018-12-17T02:11:45.758Z,314.28
2018-12-17T02:12:45.768Z,314.33
2018-12-17T02:13:45.747Z,313.91
2018-12-17T02:14:45.708Z,314.05
2018-12-17T02:15:45.685Z,314.28
2018-12-17T02:16:45.691Z,313.83
2018-12-17T02:17:45.717Z,313.92
2018-12-17T02:18:45.683Z,313.53
2018-12-17T02:19:45.686Z,314.27
2018-12-17T02:20:45.650Z,314.32
2018-12-17T02:21:45.650Z,314.21
2018-12-17T02:22:45.621Z,313.75
2018-12-17T02:23:45.609Z,314.28
2018-12-17T02:24:45.622Z,313.98
2018-12-17T02:25:45.624Z,313.96
2018-12-17T02:26:45.601Z,314.04
2018-12-17T02:27:45.567Z,314.12
2018-12-17T02:28:45.555Z,314.60
2018-12-17T02:29:45.559Z,314.36
2018-12-17T02:30:45.544Z,314.69
2018-12-17T02:31:45.564Z,314.61
2018-12-17T02:32:45.519Z,314.27
2018-12-17T02:33:45.497Z,314.28
2018-12-17T02:34:45.493Z,314.55
2018-12-17T02:35:45.489Z,314.71
2018-12-17T02:36:45.475Z,314.71
2018-12-17T02:37:45.485Z,314.15
2018-12-17T02:38:45.437Z,314.39
2018-12-17T02:39:45.454Z,314.61
2018-12-17T02:40:45.420Z,314.30
2018-12-17T02:41:45.422Z,314.33
2018-12-17T02:42:45.420Z,314.35
2018-12-17T02:43:45.415Z,314.06
2018-12-17T02:44:45.380Z,314.50
2018-12-17T02:45:45.386Z,314.41
2018-12-17T02:46:45.373Z,314.32
2018-12-17T02:47:45.358Z,314.47
2018-12-17T02:48:45.375Z,314.42
2018-12-17T02:49:45.331Z,314.26
2018-12-17T02:50:45.316Z,314.17
2018-12-17T02:51:45.312Z,314.25
2018-12-17T02:52:45.294Z,314.33
2018-12-17T02:53:45.291Z,313.96
2018-12-17T02:54:45.302Z,313.86
2018-12-17T02:55:45.272Z,313.90
2018-12-17T02:56:45.261Z,314.25
2018-12-17T02:57:45.235Z,314.70
2018-12-17T02:58:45.225Z,314.13
2018-12-17T02:59:45.265Z,314.06
2018-12-17T03:00:45.224Z,314.29
2018-12-17T03:01:45.209Z,313.77
2018-12-17T03:02:45.190Z,314.28
2018-12-17T03:03:45.182Z,313.88
2018-12-17T03:04:45.165Z,314.92
2018-12-17T03:05:45.178Z,313.82
2018-12-17T03:06:45.184Z,314.36
2018-12-17T03:07:45.138Z,314.47
2018-12-17T03:08:45.122Z,313.85
2018-12-17T03:09:45.118Z,314.58
2018-12-17T03:10:45.131Z,314.34
2018-12-17T03:11:45.090Z,314.39
2018-12-17T03:12:45.075Z,313.62
2018-12-17T03:13:45.081Z,314.12
2018-12-17T03:14:45.070Z,314.35
2018-12-17T03:15:45.045Z,313.73
2018-12-17T03:16:45.066Z,313.86
2018-12-17T03:17:45.038Z,313.73
2018-12-17T03:18:45.027Z,314.26
2018-12-17T03:19:45.025Z,314.16
2018-12-17T03:20:45.029Z,313.98
2018-12-17T03:21:45.017Z,313.95
2018-12-17T03:22:44.981Z,314.09
2018-12-17T03:23:45.003Z,314.13
2018-12-17T03:24:44.979Z,313.78
2018-12-17T03:25:44.964Z,314.19
2018-12-17T03:26:44.971Z,313.54
2018-12-17T03:27:44.962Z,313.77
2018-12-17T03:28:51.387Z,313.91
2018-12-17T03:29:45.909Z,314.45
2018-12-17T03:30:44.900Z,313.93
2018-12-17T03:31:44.900Z,313.78
2018-12-17T03:32:44.922Z,313.50
2018-12-17T03:33:44.881Z,314.03
2018-12-17T03:34:44.845Z,313.46
2018-12-17T03:35:44.889Z,313.67
2018-12-17T03:36:44.833Z,313.91
2018-12-17T03:37:44.829Z,313.51
2018-12-17T03:38:44.829Z,313.71
2018-12-17T03:39:44.802Z,313.66
2018-12-17T03:40:44.818Z,313.48
2018-12-17T03:41:44.764Z,313.45
2018-12-17T03:42:44.759Z,313.20
2018-12-17T03:43:44.774Z,313.40
2018-12-17T03:44:44.738Z,313.35
2018-12-17T03:45:44.733Z,313.51
2018-12-17T03:46:44.737Z,312.96
2018-12-17T03:47:44.698Z,313.55
2018-12-17T03:48:44.713Z,312.80
2018-12-17T03:49:44.695Z,313.26
2018-12-17T03:50:44.683Z,313.40
2018-12-17T03:51:44.690Z,313.27
2018-12-17T03:52:44.667Z,313.23
2018-12-17T03:53:44.638Z,314.24
2018-12-17T03:54:44.653Z,313.56
2018-12-17T03:55:44.616Z,313.98
2018-12-17T03:56:44.619Z,313.56
2018-12-17T03:57:44.603Z,313.69
2018-12-17T03:58:44.607Z,313.55
2018-12-17T03:59:44.577Z,313.71
2018-12-17T04:00:44.586Z,313.45
2018-12-17T04:01:44.562Z,313.60
2018-12-17T04:02:44.538Z,314.15
2018-12-17T04:03:44.553Z,313.85
2018-12-17T04:04:44.528Z,314.17
2018-12-17T04:05:44.545Z,313.52
2018-12-17T04:06:44.503Z,313.95
2018-12-17T04:07:44.521Z,314.08
2018-12-17T04:08:44.492Z,314.13
2018-12-17T04:09:44.495Z,313.64
2018-12-17T04:10:44.465Z,313.91
2018-12-17T04:11:44.486Z,314.02
2018-12-17T04:12:44.464Z,314.34
2018-12-17T04:13:44.435Z,314.43
2018-12-17T04:14:44.417Z,314.39
2018-12-17T04:15:44.402Z,314.21
2018-12-17T04:16:44.390Z,314.11
2018-12-17T04:17:44.426Z,314.08
2018-12-17T04:18:44.402Z,314.00
2018-12-17T04:19:44.361Z,314.10
2018-12-17T04:20:44.347Z,314.15
2018-12-17T04:21:44.363Z,315.01
2018-12-17T04:22:44.350Z,314.31
2018-12-17T04:23:44.366Z,314.79
2018-12-17T04:24:44.317Z,314.10
2018-12-17T04:25:44.299Z,314.63
2018-12-17T04:26:44.280Z,314.87
2018-12-17T04:27:44.273Z,314.44
2018-12-17T04:28:44.258Z,314.44
2018-12-17T04:29:44.274Z,314.62
2018-12-17T04:30:44.247Z,314.52
2018-12-17T04:31:44.261Z,314.56
2018-12-17T04:32:44.224Z,314.84
2018-12-17T04:33:44.246Z,314.62
2018-12-17T04:34:44.192Z,315.23
2018-12-17T04:35:44.202Z,314.85
2018-12-17T04:36:44.210Z,314.47
2018-12-17T04:37:44.168Z,314.58
2018-12-17T04:38:44.154Z,314.88
2018-12-17T04:39:44.160Z,314.71
2018-12-17T04:40:44.137Z,314.57
2018-12-17T04:41:44.140Z,314.61
2018-12-17T04:42:44.121Z,314.57
2018-12-17T04:43:44.126Z,315.07
2018-12-17T04:44:44.136Z,314.63
2018-12-17T04:45:44.088Z,314.67
2018-12-17T04:46:44.069Z,314.55
2018-12-17T04:47:44.058Z,314.57
2018-12-17T04:48:44.051Z,314.48
2018-12-17T04:49:44.050Z,314.41
2018-12-17T04:50:44.053Z,314.61
2018-12-17T04:51:44.038Z,314.69
2018-12-17T04:52:44.006Z,315.12
2018-12-17T04:53:44.020Z,314.30
2018-12-17T04:54:43.991Z,314.51
2018-12-17T04:55:43.998Z,314.55
2018-12-17T04:56:44.607Z,314.31
2018-12-17T04:57:43.981Z,314.76
2018-12-17T04:58:43.946Z,314.59
2018-12-17T04:59:43.926Z,314.85
2018-12-17T05:00:43.916Z,315.14
2018-12-17T05:01:43.943Z,314.97
2018-12-17T05:02:43.905Z,314.85
2018-12-17T05:03:43.926Z,314.10
2018-12-17T05:04:43.913Z,314.65
2018-12-17T05:05:43.863Z,314.39
2018-12-17T05:06:43.873Z,314.86
2018-12-17T05:07:43.865Z,315.05
2018-12-17T05:08:43.850Z,314.54
2018-12-17T05:09:44.543Z,314.37
2018-12-17T05:10:43.822Z,314.60
2018-12-17T05:11:43.829Z,314.85
2018-12-17T05:12:43.822Z,315.10
2018-12-17T05:13:43.840Z,314.48
2018-12-17T05:14:43.780Z,314.89
2018-12-17T05:15:43.770Z,314.95
2018-12-17T05:16:43.812Z,314.99
2018-12-17T05:17:43.743Z,314.61
2018-12-17T05:18:43.747Z,315.05
2018-12-17T05:19:43.715Z,314.44
2018-12-17T05:20:43.720Z,314.44
2018-12-17T05:21:43.705Z,314.67
2018-12-17T05:22:43.704Z,314.32
2018-12-17T05:23:43.705Z,314.27
2018-12-17T05:24:43.681Z,314.95
2018-12-17T05:25:43.661Z,314.62
2018-12-17T05:26:43.662Z,314.67
2018-12-17T05:27:43.636Z,314.69
2018-12-17T05:28:43.671Z,314.31
2018-12-17T05:29:43.609Z,315.13
2018-12-17T05:30:43.599Z,314.67
2018-12-17T05:31:43.603Z,314.57
2018-12-17T05:32:43.595Z,314.74
2018-12-17T05:33:43.593Z,315.31
2018-12-17T05:34:43.585Z,314.97
2018-12-17T05:35:43.552Z,315.04
2018-12-17T05:36:43.574Z,314.69
2018-12-17T05:37:43.527Z,315.06
2018-12-17T05:38:43.510Z,314.81
2018-12-17T05:39:43.548Z,314.73
2018-12-17T05:40:43.513Z,314.67
2018-12-17T05:41:43.501Z,314.76
2018-12-17T05:42:43.493Z,314.64
2018-12-17T05:43:43.465Z,314.92
2018-12-17T05:44:43.442Z,314.93
2018-12-17T05:45:43.480Z,314.67
2018-12-17T05:46:43.432Z,314.98
2018-12-17T05:47:43.451Z,314.85
2018-12-17T05:48:43.431Z,315.08
2018-12-17T05:49:43.402Z,314.81
2018-12-17T05:50:43.435Z,315.10
2018-12-17T05:51:43.398Z,315.16
2018-12-17T05:52:43.381Z,315.21
2018-12-17T05:53:43.367Z,314.54
2018-12-17T05:54:43.355Z,314.70
2018-12-17T05:55:44.306Z,314.88
2018-12-17T05:56:43.356Z,315.36
2018-12-17T05:57:43.321Z,315.83
2018-12-17T05:58:43.321Z,315.35
2018-12-17T05:59:43.301Z,314.71
2018-12-17T06:00:43.326Z,314.68
2018-12-17T06:01:43.285Z,315.03
2018-12-17T06:02:43.271Z,315.62
2018-12-17T06:03:43.252Z,314.45
2018-12-17T06:04:43.251Z,314.79
2018-12-17T06:05:43.249Z,315.22
2018-12-17T06:06:43.259Z,315.51
2018-12-17T06:07:43.216Z,315.53
2018-12-17T06:08:43.208Z,314.90
2018-12-17T06:09:43.197Z,315.62
2018-12-17T06:10:43.204Z,315.07
2018-12-17T06:11:43.210Z,314.95
2018-12-17T06:12:43.161Z,314.81
2018-12-17T06:13:43.148Z,314.71
2018-12-17T06:14:43.139Z,314.50
2018-12-17T06:15:43.124Z,314.66
2018-12-17T06:16:43.124Z,315.35
2018-12-17T06:17:43.146Z,314.56
2018-12-17T06:18:43.103Z,314.55
2018-12-17T06:19:43.088Z,315.27
2018-12-17T06:20:43.081Z,315.11
2018-12-17T06:21:43.066Z,314.91
2018-12-17T06:22:43.085Z,314.66
2018-12-17T06:23:43.045Z,315.18
2018-12-17T06:24:43.030Z,314.95
2018-12-17T06:25:43.027Z,314.94
2018-12-17T06:26:43.041Z,314.93
2018-12-17T06:27:43.013Z,314.80
2018-12-17T06:28:43.016Z,315.31
2018-12-17T06:29:42.991Z,315.33
2018-12-17T06:30:42.969Z,314.63
2018-12-17T06:31:42.965Z,314.81
2018-12-17T06:32:42.954Z,314.90
2018-12-17T06:33:42.950Z,315.00
2018-12-17T06:34:42.924Z,314.70
2018-12-17T06:35:42.919Z,315.04
2018-12-17T06:36:43.447Z,314.79
2018-12-17T06:37:42.910Z,314.72
2018-12-17T06:38:42.895Z,315.21
2018-12-17T06:39:42.908Z,314.88
2018-12-17T06:40:42.863Z,314.60
2018-12-17T06:41:42.856Z,315.24
2018-12-17T06:42:42.831Z,315.08
2018-12-17T06:43:42.846Z,314.68
2018-12-17T06:44:42.824Z,314.55
2018-12-17T06:45:42.807Z,314.86
2018-12-17T06:46:42.831Z,315.03
2018-12-17T06:47:42.795Z,314.76
2018-12-17T06:48:42.778Z,314.81
2018-12-17T06:49:42.761Z,314.77
2018-12-17T06:50:42.777Z,315.15
2018-12-17T06:51:42.773Z,315.42
2018-12-17T06:52:42.730Z,314.95
2018-12-17T06:53:42.727Z,314.92
2018-12-17T06:54:42.716Z,314.77
2018-12-17T06:55:42.706Z,315.12
2018-12-17T06:56:42.689Z,314.16
2018-12-17T06:57:42.735Z,315.09
2018-12-17T06:58:42.672Z,314.92
2018-12-17T06:59:43.071Z,314.93
2018-12-17T07:00:42.648Z,314.53
2018-12-17T07:01:42.670Z,314.78
2018-12-17T07:02:42.630Z,315.07
2018-12-17T07:03:42.641Z,314.77
2018-12-17T07:04:42.612Z,314.80
2018-12-17T07:05:42.594Z,314.63
2018-12-17T07:06:42.586Z,314.89
2018-12-17T07:07:42.568Z,314.85
2018-12-17T07:08:42.650Z,315.30
2018-12-17T07:09:42.579Z,314.72
2018-12-17T07:10:42.540Z,315.65
2018-12-17T07:11:42.526Z,315.00
2018-12-17T07:12:42.523Z,315.09
2018-12-17T07:13:42.508Z,315.18
2018-12-17T07:14:42.744Z,315.05
2018-12-17T07:15:42.480Z,315.22
2018-12-17T07:16:42.482Z,315.15
2018-12-17T07:17:42.454Z,315.16
2018-12-17T07:18:42.435Z,314.65
2018-12-17T07:19:42.435Z,314.93
2018-12-17T07:20:42.441Z,314.72
2018-12-17T07:21:42.414Z,314.78
2018-12-17T07:22:42.429Z,314.41
2018-12-17T07:23:42.395Z,314.84
2018-12-17T07:24:42.377Z,315.48
2018-12-17T07:25:42.379Z,315.11
2018-12-17T07:26:42.381Z,314.74
2018-12-17T07:27:42.340Z,314.98
2018-12-17T07:28:42.343Z,314.72
2018-12-17T07:29:42.332Z,314.82
2018-12-17T07:30:42.341Z,315.05
2018-12-17T07:31:42.304Z,314.78
2018-12-17T07:32:42.310Z,314.74
2018-12-17T07:33:42.285Z,314.92
2018-12-17T07:34:42.297Z,314.42
2018-12-17T07:35:42.270Z,315.10
2018-12-17T07:36:42.261Z,314.78
2018-12-17T07:37:42.270Z,314.80
2018-12-17T07:38:42.233Z,315.33
2018-12-17T07:39:42.234Z,315.10
2018-12-17T07:40:42.209Z,314.92
2018-12-17T07:41:42.216Z,315.14
2018-12-17T07:42:42.224Z,314.91
2018-12-17T07:43:42.193Z,314.82
2018-12-17T07:44:42.191Z,315.55
2018-12-17T07:45:42.156Z,315.36
2018-12-17T07:46:42.166Z,315.10
2018-12-17T07:47:42.152Z,315.73
2018-12-17T07:48:42.143Z,315.16
2018-12-17T07:49:42.151Z,315.13
2018-12-17T07:50:42.099Z,315.79
2018-12-17T07:51:42.091Z,315.09
2018-12-17T07:52:42.084Z,315.05
2018-12-17T07:53:42.072Z,315.51
2018-12-17T07:54:42.070Z,314.95
2018-12-17T07:55:42.073Z,315.66
2018-12-17T07:56:42.044Z,315.75
2018-12-17T07:57:42.030Z,315.70
2018-12-17T07:58:42.049Z,315.36
2018-12-17T07:59:42.001Z,315.23
2018-12-17T08:00:41.989Z,315.10
2018-12-17T08:01:42.015Z,315.34
2018-12-17T08:02:41.977Z,315.28
2018-12-17T08:03:41.965Z,314.78
2018-12-17T08:04:41.948Z,315.05
2018-12-17T08:05:41.968Z,315.25
2018-12-17T08:06:41.936Z,315.52
2018-12-17T08:07:41.945Z,315.15
2018-12-17T08:08:41.911Z,315.18
2018-12-17T08:09:41.901Z,315.17
2018-12-17T08:10:41.893Z,315.25
2018-12-17T08:11:41.892Z,315.68
2018-12-17T08:12:41.856Z,315.23
2018-12-17T08:13:42.706Z,315.50
2018-12-17T08:14:41.847Z,315.10
2018-12-17T08:15:41.836Z,315.79
2018-12-17T08:16:41.840Z,315.31
2018-12-17T08:17:41.831Z,315.22
2018-12-17T08:18:41.792Z,315.41
2018-12-17T08:19:41.785Z,315.41
2018-12-17T08:20:41.795Z,315.43
2018-12-17T08:21:41.767Z,315.27
2018-12-17T08:22:41.755Z,314.93
2018-12-17T08:23:41.754Z,315.51
2018-12-17T08:24:41.722Z,315.71
2018-12-17T08:25:41.737Z,315.33
2018-12-17T08:26:42.448Z,315.71
2018-12-17T08:27:41.711Z,315.09
2018-12-17T08:28:41.733Z,315.25
2018-12-17T08:29:41.683Z,315.50
2018-12-17T08:30:41.665Z,314.95
2018-12-17T08:31:41.655Z,315.48
2018-12-17T08:32:41.655Z,315.58
2018-12-17T08:33:41.643Z,315.96
2018-12-17T08:34:41.714Z,316.04
2018-12-17T08:35:41.622Z,316.09
2018-12-17T08:36:41.599Z,315.27
2018-12-17T08:37:41.619Z,315.89
2018-12-17T08:38:41.600Z,315.24
2018-12-17T08:39:41.570Z,315.70
2018-12-17T08:40:41.583Z,315.46
2018-12-17T08:41:41.551Z,315.65
2018-12-17T08:42:41.567Z,315.94
2018-12-17T08:43:41.519Z,315.77
2018-12-17T08:44:41.526Z,315.48
2018-12-17T08:45:41.571Z,316.03
2018-12-17T08:46:41.515Z,315.52
2018-12-17T08:47:41.499Z,315.15
2018-12-17T08:48:41.481Z,315.16
2018-12-17T08:49:41.469Z,315.45
2018-12-17T08:50:41.460Z,315.24
2018-12-17T08:51:41.498Z,315.28
2018-12-17T08:52:41.473Z,315.49
2018-12-17T08:53:41.411Z,314.86
2018-12-17T08:54:41.406Z,316.14
2018-12-17T08:55:41.401Z,315.39
2018-12-17T08:56:41.386Z,316.26
2018-12-17T08:57:41.424Z,315.39
2018-12-17T08:58:41.382Z,315.98
2018-12-17T08:59:41.398Z,315.66
2018-12-17T09:00:41.372Z,315.69
2018-12-17T09:01:41.353Z,315.73
2018-12-17T09:02:41.330Z,315.50
2018-12-17T09:03:41.372Z,315.50
2018-12-17T09:04:41.307Z,315.51
2018-12-17T09:05:41.308Z,315.55
2018-12-17T09:06:41.282Z,315.84
2018-12-17T09:07:41.290Z,315.53
2018-12-17T09:08:41.262Z,314.98
2018-12-17T09:09:41.272Z,315.57
2018-12-17T09:10:41.246Z,315.53
2018-12-17T09:11:41.227Z,315.34
2018-12-17T09:12:41.213Z,315.54
2018-12-17T09:13:41.219Z,315.33
2018-12-17T09:14:41.192Z,315.35
2018-12-17T09:15:41.204Z,315.37
2018-12-17T09:16:41.159Z,315.06
2018-12-17T09:17:41.163Z,315.31
2018-12-17T09:18:41.153Z,315.52
2018-12-17T09:19:41.170Z,315.42
2018-12-17T09:20:41.136Z,315.11
2018-12-17T09:21:41.111Z,314.94
2018-12-17T09:22:41.097Z,315.36
2018-12-17T09:23:41.118Z,315.15
2018-12-17T09:24:41.090Z,315.07
2018-12-17T09:25:41.086Z,315.04
2018-12-17T09:26:41.064Z,315.40
2018-12-17T09:27:41.049Z,315.46
2018-12-17T09:28:41.031Z,315.33
2018-12-17T09:29:41.034Z,314.93
2018-12-17T09:30:41.541Z,315.25
2018-12-17T09:31:41.004Z,314.62
2018-12-17T09:32:41.007Z,314.99
2018-12-17T09:33:40.989Z,314.92
2018-12-17T09:34:40.967Z,315.56
2018-12-17T09:35:40.989Z,315.23
2018-12-17T09:36:40.957Z,315.25
2018-12-17T09:37:40.943Z,315.08
2018-12-17T09:38:40.951Z,315.04
2018-12-17T09:39:40.929Z,314.85
2018-12-17T09:40:40.899Z,314.60
2018-12-17T09:41:40.934Z,314.96
2018-12-17T09:42:40.972Z,315.02
2018-12-17T09:43:40.883Z,314.79
2018-12-17T09:44:40.861Z,315.39
2018-12-17T09:45:40.846Z,315.55
2018-12-17T09:46:40.840Z,314.96
2018-12-17T09:47:40.878Z,315.32
2018-12-17T09:48:40.816Z,315.10
2018-12-17T09:49:40.818Z,315.41
2018-12-17T09:50:40.800Z,314.60
2018-12-17T09:51:40.797Z,314.81
2018-12-17T09:52:40.788Z,314.93
2018-12-17T09:53:40.790Z,314.85
2018-12-17T09:54:40.748Z,315.09
2018-12-17T09:55:40.763Z,314.95
2018-12-17T09:56:40.737Z,314.99
2018-12-17T09:57:40.720Z,314.55
2018-12-17T09:58:40.707Z,314.74
2018-12-17T09:59:40.716Z,314.64
2018-12-17T10:00:40.682Z,314.86
2018-12-17T10:01:40.686Z,314.53
2018-12-17T10:02:40.670Z,315.01
2018-12-17T10:03:41.829Z,315.21
2018-12-17T10:04:40.682Z,314.53
2018-12-17T10:05:40.644Z,314.28
2018-12-17T10:06:40.618Z,314.50
2018-12-17T10:07:40.618Z,314.75
2018-12-17T10:08:40.614Z,314.67
2018-12-17T10:09:40.591Z,314.47
2018-12-17T10:10:40.623Z,314.38
2018-12-17T10:11:40.564Z,314.72
2018-12-17T10:12:40.564Z,315.04
2018-12-17T10:13:40.565Z,314.86
2018-12-17T10:14:40.572Z,315.18
2018-12-17T10:15:40.550Z,314.88
2018-12-17T10:16:40.547Z,315.14
2018-12-17T10:17:40.503Z,315.19
2018-12-17T10:18:40.491Z,315.39
2018-12-17T10:19:40.502Z,315.48
2018-12-17T10:20:40.475Z,315.08
2018-12-17T10:21:40.469Z,315.07
2018-12-17T10:22:40.456Z,315.51
2018-12-17T10:23:40.463Z,315.61
2018-12-17T10:24:40.443Z,315.16
2018-12-17T10:25:40.449Z,314.93
2018-12-17T10:26:40.414Z,315.53
2018-12-17T10:27:40.400Z,315.24
2018-12-17T10:28:40.396Z,315.05
2018-12-17T10:29:40.367Z,314.79
2018-12-17T10:30:40.372Z,314.63
2018-12-17T10:31:40.381Z,314.83
2018-12-17T10:32:40.420Z,315.19
2018-12-17T10:33:40.334Z,314.62
2018-12-17T10:34:40.326Z,314.43
2018-12-17T10:35:40.325Z,314.73
2018-12-17T10:36:40.342Z,315.14
2018-12-17T10:37:40.288Z,314.61
2018-12-17T10:38:40.265Z,314.37
2018-12-17T10:39:40.265Z,314.88
2018-12-17T10:40:40.253Z,314.96
2018-12-17T10:41:40.245Z,314.74
2018-12-17T10:42:40.254Z,314.63
2018-12-17T10:43:40.217Z,314.57
2018-12-17T10:44:40.204Z,314.27
2018-12-17T10:45:40.201Z,314.35
2018-12-17T10:46:40.216Z,314.79
2018-12-17T10:47:40.190Z,314.16
2018-12-17T10:48:40.180Z,314.28
2018-12-17T10:49:40.840Z,314.48
2018-12-17T10:50:40.209Z,314.64
2018-12-17T10:51:40.122Z,314.31
2018-12-17T10:52:40.131Z,314.29
2018-12-17T10:53:40.138Z,314.66
2018-12-17T10:54:40.165Z,313.95
2018-12-17T10:55:40.114Z,314.53
2018-12-17T10:56:40.191Z,315.02
2018-12-17T10:57:40.065Z,314.05
2018-12-17T10:58:40.066Z,314.49
2018-12-17T10:59:40.058Z,314.30
2018-12-17T11:00:40.081Z,314.38
2018-12-17T11:01:40.020Z,314.69
2018-12-17T11:02:40.012Z,314.57
2018-12-17T11:03:40.004Z,314.50
2018-12-17T11:04:39.992Z,314.87
2018-12-17T11:05:40.002Z,315.02
2018-12-17T11:06:40.003Z,315.22
2018-12-17T11:07:39.956Z,314.46
2018-12-17T11:08:39.952Z,314.95
2018-12-17T11:09:39.950Z,314.50
2018-12-17T11:10:39.941Z,314.55
2018-12-17T11:11:39.955Z,314.38
2018-12-17T11:12:39.932Z,314.62
2018-12-17T11:13:39.892Z,314.08
2018-12-17T11:14:39.885Z,313.99
2018-12-17T11:15:39.908Z,314.45
2018-12-17T11:16:39.872Z,314.32
2018-12-17T11:17:39.882Z,313.98
2018-12-17T11:18:39.848Z,314.38
2018-12-17T11:19:39.855Z,314.21
2018-12-17T11:20:39.905Z,314.16
2018-12-17T11:21:39.814Z,314.26
2018-12-17T11:22:39.816Z,314.06
2018-12-17T11:23:39.819Z,314.07
2018-12-17T11:24:39.791Z,314.08
2018-12-17T11:25:39.776Z,314.04
2018-12-17T11:26:39.786Z,313.94
2018-12-17T11:27:39.796Z,314.26
2018-12-17T11:28:39.784Z,314.10
2018-12-17T11:29:39.784Z,314.15
2018-12-17T11:30:46.308Z,314.24
2018-12-17T11:31:40.801Z,314.56
2018-12-17T11:32:39.750Z,314.33
2018-12-17T11:33:39.783Z,314.57
2018-12-17T11:34:39.675Z,314.59
2018-12-17T11:35:41.256Z,314.55
2018-12-17T11:36:39.648Z,314.96
2018-12-17T11:37:39.667Z,314.91
2018-12-17T11:38:39.620Z,314.81
2018-12-17T11:39:39.614Z,314.59
2018-12-17T11:40:39.679Z,314.48
2018-12-17T11:41:39.601Z,314.85
2018-12-17T11:42:39.643Z,314.75
2018-12-17T11:43:43.763Z,314.95
2018-12-17T11:44:39.562Z,314.67
2018-12-17T11:45:39.559Z,314.59
2018-12-17T11:46:39.556Z,314.61
2018-12-17T11:47:39.548Z,314.91
2018-12-17T11:48:39.563Z,314.86
2018-12-17T11:49:39.539Z,314.88
2018-12-17T11:50:39.506Z,314.87
2018-12-17T11:51:39.492Z,314.41
2018-12-17T11:52:39.526Z,314.77
2018-12-17T11:53:39.539Z,315.20
2018-12-17T11:54:39.456Z,315.11
2018-12-17T11:55:39.439Z,314.70
2018-12-17T11:56:39.458Z,314.79
2018-12-17T11:57:39.439Z,314.66
2018-12-17T11:58:39.457Z,314.65
2018-12-17T11:59:39.433Z,315.12
2018-12-17T12:00:39.448Z,314.86
2018-12-17T12:01:39.394Z,314.76
2018-12-17T12:02:39.471Z,315.20
2018-12-17T12:03:39.384Z,315.09
2018-12-17T12:04:39.389Z,315.16
2018-12-17T12:05:39.393Z,314.88
2018-12-17T12:06:39.593Z,315.36
2018-12-17T12:07:39.309Z,315.41
2018-12-17T12:08:39.323Z,314.86
2018-12-17T12:09:39.379Z,315.26
2018-12-17T12:10:39.412Z,314.87
2018-12-17T12:11:39.332Z,315.44
2018-12-17T12:12:39.342Z,315.03
2018-12-17T12:13:39.304Z,315.21
2018-12-17T12:14:39.327Z,315.60
2018-12-17T12:15:39.322Z,314.91
2018-12-17T12:16:39.223Z,314.93
2018-12-17T12:17:39.198Z,314.45
2018-12-17T12:18:39.179Z,315.09
2018-12-17T12:19:39.223Z,314.80
2018-12-17T12:20:39.171Z,314.54
2018-12-17T12:21:39.172Z,314.42
2018-12-17T12:22:39.200Z,314.55
2018-12-17T12:23:39.181Z,314.61
2018-12-17T12:24:39.118Z,314.16
2018-12-17T12:25:39.173Z,314.42
2018-12-17T12:26:39.118Z,314.34
2018-12-17T12:27:39.109Z,313.96
2018-12-17T12:28:39.085Z,314.28